createdAt,value
2022-11-21T00:03:32.166Z,4.21
2022-11-21T00:08:38.476Z,3.05
2022-11-21T00:13:44.701Z,2.70
2022-11-21T00:18:51.081Z,3.26
2022-11-21T00:23:57.355Z,3.79
2022-11-21T00:29:03.783Z,2.41
2022-11-21T00:34:10.054Z,2.15
2022-11-21T00:39:16.433Z,2.66
2022-11-21T00:44:22.695Z,2.91
2022-11-21T00:49:30.036Z,2.03
2022-11-21T00:54:36.408Z,2.38
2022-11-21T00:59:42.745Z,2.99
2022-11-21T01:04:48.978Z,1.98
2022-11-21T01:09:55.292Z,3.03
2022-11-21T01:15:01.845Z,2.38
2022-11-21T01:20:08.281Z,3.60
2022-11-21T01:25:14.559Z,2.04
2022-11-21T01:30:20.937Z,2.03
2022-11-21T01:35:27.196Z,2.25
2022-11-21T01:40:33.831Z,2.96
2022-11-21T01:45:40.108Z,2.20
2022-11-21T01:50:46.404Z,2.14
2022-11-21T01:55:52.777Z,2.05
2022-11-21T02:00:59.186Z,2.29
2022-11-21T02:06:05.492Z,3.18
2022-11-21T02:11:11.925Z,3.34
2022-11-21T02:16:18.143Z,1.97
2022-11-21T02:21:24.453Z,2.25
2022-11-21T02:31:40.647Z,2.88
2022-11-21T02:36:46.978Z,1.84
2022-11-21T02:41:53.505Z,2.82
2022-11-21T02:46:59.873Z,1.93
2022-11-21T02:52:06.251Z,2.77
2022-11-21T02:57:12.602Z,1.79
2022-11-21T03:02:18.870Z,2.36
2022-11-21T03:07:25.235Z,2.02
2022-11-21T03:12:31.471Z,2.48
2022-11-21T03:17:37.910Z,2.06
2022-11-21T03:22:44.127Z,1.82
2022-11-21T03:27:50.458Z,1.79
2022-11-21T03:33:06.514Z,2.75
2022-11-21T03:38:02.868Z,1.67
2022-11-21T03:43:09.131Z,1.70
2022-11-21T03:48:15.885Z,1.47
2022-11-21T03:53:22.223Z,2.47
2022-11-21T03:58:28.553Z,1.56
2022-11-21T04:03:34.791Z,2.35
2022-11-21T04:09:15.176Z,1.64
2022-11-21T04:13:41.390Z,1.50
2022-11-21T04:18:47.795Z,2.28
2022-11-21T04:23:54.051Z,1.36
2022-11-21T04:29:00.377Z,2.05
2022-11-21T04:34:06.609Z,1.58
2022-11-21T04:39:13.034Z,2.20
2022-11-21T04:44:19.361Z,1.73
2022-11-21T04:49:25.640Z,2.59
2022-11-21T04:54:32.042Z,2.04
2022-11-21T04:59:38.375Z,1.91
2022-11-21T05:04:44.628Z,1.91
2022-11-21T05:09:51.141Z,3.24
2022-11-21T05:14:58.594Z,2.32
2022-11-21T05:20:06.598Z,1.96
2022-11-21T05:25:12.826Z,1.97
2022-11-21T05:30:19.074Z,3.13
2022-11-21T05:35:25.285Z,3.54
2022-11-21T05:40:31.779Z,3.21
2022-11-21T05:45:40.916Z,3.52
2022-11-21T05:50:47.220Z,2.31
2022-11-21T05:55:53.366Z,2.47
2022-11-21T06:01:01.657Z,2.41
2022-11-21T06:06:07.890Z,2.53
2022-11-21T06:11:14.217Z,2.43
2022-11-21T06:16:20.619Z,3.00
2022-11-21T06:26:26.997Z,2.80
2022-11-21T06:31:33.319Z,3.02
2022-11-21T06:36:41.662Z,3.41
2022-11-21T06:41:47.999Z,3.53
2022-11-21T06:46:54.291Z,4.72
2022-11-21T06:52:00.617Z,3.99
2022-11-21T06:57:09.655Z,2.88
2022-11-21T07:02:15.116Z,3.13
2022-11-21T07:07:25.594Z,3.39
2022-11-21T07:12:25.623Z,3.31
2022-11-21T07:17:34.991Z,3.25
2022-11-21T07:22:40.652Z,3.13
2022-11-21T07:27:50.918Z,3.56
2022-11-21T07:32:58.792Z,3.09
2022-11-21T07:38:05.014Z,3.09
2022-11-21T07:43:12.686Z,2.97
2022-11-21T07:48:20.491Z,2.78
2022-11-21T07:53:29.304Z,3.33
2022-11-21T07:58:38.723Z,3.04
2022-11-21T08:03:39.088Z,2.92
2022-11-21T08:08:38.100Z,2.85
2022-11-21T08:13:46.421Z,2.77
2022-11-21T08:18:51.655Z,2.29
2022-11-21T08:24:02.464Z,2.39
2022-11-21T08:29:00.247Z,2.16
2022-11-21T08:34:14.455Z,2.24
2022-11-21T08:39:08.484Z,3.01
2022-11-21T08:44:18.741Z,1.90
2022-11-21T08:49:27.611Z,3.00
2022-11-21T08:54:33.785Z,2.47
2022-11-21T08:59:45.762Z,2.04
2022-11-21T09:04:43.498Z,2.39
2022-11-21T09:09:50.675Z,2.23
2022-11-21T09:14:58.217Z,2.35
2022-11-21T09:20:06.435Z,2.58
2022-11-21T09:25:17.890Z,2.19
2022-11-21T09:30:14.998Z,6.88
2022-11-21T09:35:27.558Z,2.54
2022-11-21T09:40:25.019Z,2.15
2022-11-21T09:45:38.772Z,1.55
2022-11-21T09:50:34.768Z,1.73
2022-11-21T09:55:44.733Z,1.55
2022-11-21T10:00:53.163Z,1.50
2022-11-21T10:07:02.026Z,1.36
2022-11-21T10:11:14.123Z,1.53
2022-11-21T10:16:13.947Z,1.30
2022-11-21T10:21:10.876Z,1.27
2022-11-21T10:26:12.161Z,1.21
2022-11-21T10:31:10.804Z,1.05
2022-11-21T10:36:24.788Z,0.85
2022-11-21T10:41:23.692Z,0.53
2022-11-21T10:46:30.744Z,0.76
2022-11-21T10:51:39.072Z,0.56
2022-11-21T10:56:58.362Z,0.61
2022-11-21T11:01:55.293Z,0.70
2022-11-21T11:07:05.217Z,0.56
2022-11-21T11:12:21.063Z,0.47
2022-11-21T11:17:19.122Z,0.73
2022-11-21T11:22:15.301Z,0.55
2022-11-21T11:27:17.581Z,0.44
2022-11-21T11:32:20.891Z,0.66
2022-11-21T11:37:22.486Z,0.63
2022-11-21T11:42:32.071Z,0.52
2022-11-21T11:47:54.445Z,0.89
2022-11-21T11:52:50.104Z,0.60
2022-11-21T11:58:00.533Z,0.98
2022-11-21T12:03:02.579Z,0.63
2022-11-21T12:08:41.560Z,0.45
2022-11-21T12:13:17.397Z,0.76
2022-11-21T12:18:12.816Z,0.55
2022-11-21T12:23:19.209Z,0.57
2022-11-21T12:28:25.652Z,0.65
2022-11-21T12:33:32.012Z,0.54
2022-11-21T12:38:44.568Z,1.13
2022-11-21T12:43:47.268Z,0.72
2022-11-21T12:48:55.937Z,0.55
2022-11-21T12:54:02.365Z,0.76
2022-11-21T12:59:11.752Z,0.68
2022-11-21T13:09:19.857Z,1.09
2022-11-21T13:14:26.190Z,0.70
2022-11-21T13:19:32.847Z,1.16
2022-11-21T13:24:39.276Z,0.58
2022-11-21T13:29:45.679Z,0.60
2022-11-21T13:34:53.328Z,0.85
2022-11-21T13:40:01.424Z,0.70
2022-11-21T13:45:06.860Z,0.91
2022-11-21T13:50:13.061Z,0.66
2022-11-21T13:55:19.543Z,0.59
2022-11-21T14:00:25.818Z,0.69
2022-11-21T14:05:33.297Z,0.59
2022-11-21T14:10:39.533Z,0.62
